Time,TemperatureF,DewpointF,PressureIn,WindDirection,WindDirectionDegrees,WindSpeedMPH,WindSpeedGustMPH,Humidity,HourlyPrecipIn,Conditions,Clouds,dailyrainin,SoftwareType,DateUTC
2013-01-16 00:00:00,48.6,48.4,30.00,NW,320,0.0,1.0,99,0.10,,,0.44,meteohub,2013-01-16 05:00:00,
2013-01-16 00:01:00,48.6,48.4,30.00,NW,321,0.0,1.0,99,0.09,,,0.45,meteohub,2013-01-16 05:01:00,
2013-01-16 00:02:00,48.6,48.4,30.00,NW,321,0.0,1.0,99,0.09,,,0.45,meteohub,2013-01-16 05:02:00,
2013-01-16 00:07:00,48.6,48.4,30.00,NW,320,0.0,0.0,99,0.08,,,0.45,meteohub,2013-01-16 05:07:00,
2013-01-16 00:12:00,48.6,48.4,30.00,NW,321,0.0,0.0,99,0.07,,,0.45,meteohub,2013-01-16 05:12:00,
2013-01-16 00:17:00,48.7,48.6,29.99,NW,321,0.0,0.0,99,0.05,,,0.45,meteohub,2013-01-16 05:17:00,
2013-01-16 00:22:00,48.9,48.9,29.99,NW,321,0.0,0.0,100,0.05,,,0.46,meteohub,2013-01-16 05:22:00,
2013-01-16 00:27:00,49.1,49.1,29.99,WNW,284,0.0,0.0,100,0.05,,,0.46,meteohub,2013-01-16 05:27:00,
2013-01-16 00:32:00,49.3,49.3,29.99,WNW,285,0.0,1.0,100,0.05,,,0.47,meteohub,2013-01-16 05:32:00,
2013-01-16 00:37:00,49.5,49.5,29.99,WNW,287,0.0,1.0,100,0.05,,,0.47,meteohub,2013-01-16 05:37:00,
2013-01-16 00:42:00,48.6,48.4,29.99,WNW,287,0.0,0.0,99,0.05,,,0.47,meteohub,2013-01-16 05:42:00,
2013-01-16 00:47:00,48.6,48.4,29.99,WNW,287,0.0,0.0,99,0.04,,,0.47,meteohub,2013-01-16 05:47:00,
2013-01-16 08:38:00,53.2,53.2,29.97,North,-999,-999.0,-999.0,100,-99.99,,,0.47,meteohub,2013-01-16 13:38:00,
2013-01-16 08:43:00,53.2,53.2,29.96,North,-999,-999.0,-999.0,100,0.00,,,0.47,meteohub,2013-01-16 13:43:00,
2013-01-16 08:48:00,53.4,53.4,29.97,SSW,193,0.0,-999.0,100,0.00,,,0.47,meteohub,2013-01-16 13:48:00,
2013-01-16 08:53:00,53.4,53.4,29.98,SSW,203,4.0,5.0,100,0.00,,,0.47,meteohub,2013-01-16 13:53:00,
2013-01-16 08:58:00,53.4,53.4,29.97,SSW,205,0.0,5.0,100,0.00,,,0.47,meteohub,2013-01-16 13:58:00,
2013-01-16 09:03:00,53.4,53.4,29.97,SE,136,0.0,6.0,100,0.00,,,0.47,meteohub,2013-01-16 14:03:00,
2013-01-16 09:08:00,53.6,53.6,29.98,West,260,1.0,6.0,100,0.00,,,0.47,meteohub,2013-01-16 14:08:00,
2013-01-16 09:13:00,53.4,53.4,29.98,SSW,203,3.0,5.0,100,0.00,,,0.47,meteohub,2013-01-16 14:13:00,
2013-01-16 09:18:00,53.4,53.4,29.99,West,274,0.0,7.0,100,0.00,,,0.47,meteohub,2013-01-16 14:18:00,
2013-01-16 09:23:00,53.4,53.4,29.98,SE,127,0.0,7.0,100,0.00,,,0.47,meteohub,2013-01-16 14:23:00,
2013-01-16 09:28:00,53.4,53.4,29.99,SSW,194,0.0,7.0,100,0.00,,,0.47,meteohub,2013-01-16 14:28:00,
2013-01-16 09:33:00,53.2,53.2,29.99,SSE,152,0.0,5.0,100,0.00,,,0.47,meteohub,2013-01-16 14:33:00,
2013-01-16 09:38:00,53.4,53.4,29.99,SSW,207,0.0,5.0,100,0.00,,,0.47,meteohub,2013-01-16 14:38:00,
2013-01-16 09:43:00,53.2,53.2,30.00,SSW,195,0.0,5.0,100,0.00,,,0.47,meteohub,2013-01-16 14:43:00,
2013-01-16 09:48:00,53.2,52.9,30.00,East,84,0.0,5.0,99,0.00,,,0.47,meteohub,2013-01-16 14:48:00,
2013-01-16 09:53:00,53.2,52.9,30.00,WSW,248,1.0,4.0,99,0.00,,,0.47,meteohub,2013-01-16 14:53:00,
2013-01-16 09:58:00,53.1,52.7,30.00,SW,225,0.0,4.0,99,0.00,,,0.47,meteohub,2013-01-16 14:58:00,
2013-01-16 10:03:00,53.1,52.7,30.00,SE,143,0.0,7.0,99,0.00,,,0.47,meteohub,2013-01-16 15:03:00,
2013-01-16 10:08:00,53.2,52.9,30.00,ENE,75,0.0,7.0,99,0.00,,,0.47,meteohub,2013-01-16 15:08:00,
2013-01-16 10:13:00,53.2,52.9,30.00,West,271,0.0,7.0,99,0.00,,,0.47,meteohub,2013-01-16 15:13:00,
2013-01-16 10:18:00,53.4,53.1,29.99,SSW,193,0.0,5.0,99,0.00,,,0.47,meteohub,2013-01-16 15:18:00,
2013-01-16 10:23:00,53.8,53.8,29.99,SW,229,0.0,3.0,100,0.00,,,0.47,meteohub,2013-01-16 15:23:00,
2013-01-16 10:28:00,53.8,53.4,29.99,WSW,242,0.0,2.0,99,0.00,,,0.47,meteohub,2013-01-16 15:28:00,
2013-01-16 10:33:00,53.8,53.4,29.99,SSW,212,0.0,1.0,99,0.00,,,0.47,meteohub,2013-01-16 15:33:00,
2013-01-16 10:38:00,53.8,53.4,29.99,WSW,253,3.0,3.0,99,0.00,,,0.47,meteohub,2013-01-16 15:38:00,
2013-01-16 10:43:00,53.4,52.9,30.00,NW,311,2.0,4.0,98,0.00,,,0.47,meteohub,2013-01-16 15:43:00,
2013-01-16 10:48:00,52.3,51.3,30.00,ENE,73,1.0,4.0,96,0.00,,,0.47,meteohub,2013-01-16 15:48:00,
2013-01-16 10:54:00,51.6,51.1,29.99,WNW,295,0.0,5.0,98,0.00,,,0.47,meteohub,2013-01-16 15:54:00,
2013-01-16 10:59:00,51.6,51.1,29.99,SE,139,0.0,5.0,98,0.00,,,0.47,meteohub,2013-01-16 15:59:00,
2013-01-16 11:04:00,52.0,51.6,29.99,East,96,1.0,5.0,99,0.00,,,0.47,meteohub,2013-01-16 16:04:00,
2013-01-16 11:09:00,52.2,51.8,29.98,East,89,0.0,3.0,99,0.00,,,0.47,meteohub,2013-01-16 16:09:00,
2013-01-16 11:14:00,52.7,52.3,29.99,East,89,0.0,2.0,99,0.00,,,0.47,meteohub,2013-01-16 16:14:00,
2013-01-16 11:19:00,53.2,52.9,29.98,NE,46,0.0,1.0,99,0.00,,,0.47,meteohub,2013-01-16 16:19:00,
2013-01-16 11:24:00,53.6,53.2,29.98,ENE,67,5.0,5.0,99,0.00,,,0.47,meteohub,2013-01-16 16:24:00,
2013-01-16 11:29:00,53.1,52.5,29.99,North,357,3.0,5.0,98,0.00,,,0.47,meteohub,2013-01-16 16:29:00,
2013-01-16 11:34:00,53.1,52.5,29.99,NNW,347,0.0,6.0,98,0.00,,,0.47,meteohub,2013-01-16 16:34:00,
2013-01-16 11:39:00,52.9,52.3,29.99,NNE,13,1.0,6.0,98,0.00,,,0.47,meteohub,2013-01-16 16:39:00,
2013-01-16 11:44:00,52.7,52.2,29.98,North,358,1.0,6.0,98,0.00,,,0.47,meteohub,2013-01-16 16:44:00,
2013-01-16 11:49:00,52.5,52.2,29.98,North,6,2.0,5.0,99,0.00,,,0.47,meteohub,2013-01-16 16:49:00,
2013-01-16 11:54:00,52.5,52.2,29.98,North,349,2.0,6.0,99,0.00,,,0.47,meteohub,2013-01-16 16:54:00,
2013-01-16 11:59:00,52.7,52.3,29.97,NE,48,0.0,6.0,99,0.00,,,0.47,meteohub,2013-01-16 16:59:00,
2013-01-16 12:04:00,52.7,52.3,29.97,NE,37,0.0,6.0,99,0.00,,,0.47,meteohub,2013-01-16 17:04:00,
2013-01-16 12:09:00,52.9,52.5,29.98,SE,134,0.0,6.0,99,0.00,,,0.47,meteohub,2013-01-16 17:09:00,
2013-01-16 12:14:00,53.1,52.7,29.98,NNE,13,0.0,3.0,99,0.00,,,0.47,meteohub,2013-01-16 17:14:00,
2013-01-16 12:19:00,52.9,52.5,29.98,North,8,1.0,3.0,99,0.00,,,0.47,meteohub,2013-01-16 17:19:00,
2013-01-16 12:24:00,52.9,52.5,29.97,North,11,3.0,3.0,99,0.00,,,0.47,meteohub,2013-01-16 17:24:00,
2013-01-16 12:29:00,53.1,52.7,29.97,NNW,343,1.0,5.0,99,0.00,,,0.47,meteohub,2013-01-16 17:29:00,
2013-01-16 12:34:00,53.2,52.9,29.96,East,82,0.0,5.0,99,0.00,,,0.47,meteohub,2013-01-16 17:34:00,
2013-01-16 12:39:00,53.1,52.7,29.96,NNE,22,2.0,5.0,99,0.00,,,0.47,meteohub,2013-01-16 17:39:00,
2013-01-16 12:44:00,52.9,52.5,29.96,NNE,31,0.0,4.0,99,0.00,,,0.47,meteohub,2013-01-16 17:44:00,
2013-01-16 12:49:00,52.9,52.5,29.96,North,0,2.0,5.0,99,0.00,,,0.47,meteohub,2013-01-16 17:49:00,
2013-01-16 12:54:00,52.9,52.5,29.97,North,357,2.0,5.0,99,0.00,,,0.47,meteohub,2013-01-16 17:54:00,
2013-01-16 12:59:00,52.7,52.3,29.96,NNW,340,3.0,6.0,99,0.00,,,0.47,meteohub,2013-01-16 17:59:00,
2013-01-16 13:04:00,52.9,52.5,29.96,North,349,1.0,6.0,99,0.00,,,0.47,meteohub,2013-01-16 18:04:00,
2013-01-16 13:09:00,52.9,52.5,29.95,North,354,2.0,6.0,99,0.00,,,0.47,meteohub,2013-01-16 18:09:00,
2013-01-16 13:14:00,52.9,52.3,29.95,NNW,335,1.0,6.0,98,0.00,,,0.47,meteohub,2013-01-16 18:14:00,
2013-01-16 13:19:00,53.2,52.7,29.94,ENE,71,2.0,4.0,98,0.00,,,0.47,meteohub,2013-01-16 18:19:00,
2013-01-16 13:24:00,53.4,52.5,29.94,NNE,20,3.0,4.0,97,0.00,,,0.47,meteohub,2013-01-16 18:24:00,
2013-01-16 13:29:00,53.4,52.5,29.94,ENE,63,2.0,5.0,97,0.00,,,0.47,meteohub,2013-01-16 18:29:00,
2013-01-16 13:34:00,53.4,52.5,29.95,NNE,32,1.0,5.0,97,0.00,,,0.47,meteohub,2013-01-16 18:34:00,
2013-01-16 13:39:00,53.6,52.7,29.95,NE,34,0.0,5.0,97,0.00,,,0.47,meteohub,2013-01-16 18:39:00,
2013-01-16 13:44:00,54.0,53.1,29.96,SSW,207,0.0,4.0,97,0.00,,,0.47,meteohub,2013-01-16 18:44:00,
2013-01-16 13:49:00,54.1,53.2,29.96,SSW,205,0.0,3.0,97,0.00,,,0.47,meteohub,2013-01-16 18:49:00,
2013-01-16 13:54:00,54.3,53.4,29.95,East,96,0.0,1.0,97,0.00,,,0.47,meteohub,2013-01-16 18:54:00,
2013-01-16 13:59:00,54.7,53.8,29.95,SSW,200,0.0,1.0,97,0.00,,,0.47,meteohub,2013-01-16 18:59:00,
2013-01-16 14:04:00,55.0,54.1,29.95,West,267,1.0,1.0,97,0.00,,,0.47,meteohub,2013-01-16 19:04:00,
2013-01-16 14:09:00,55.2,54.1,29.95,SW,219,1.0,2.0,96,0.00,,,0.47,meteohub,2013-01-16 19:09:00,
2013-01-16 14:14:00,55.2,54.1,29.95,WSW,246,0.0,2.0,96,0.00,,,0.47,meteohub,2013-01-16 19:14:00,
2013-01-16 14:19:00,55.6,54.5,29.95,WNW,287,1.0,2.0,96,0.00,,,0.47,meteohub,2013-01-16 19:19:00,
2013-01-16 14:24:00,55.6,54.5,29.95,WSW,257,0.0,2.0,96,0.00,,,0.47,meteohub,2013-01-16 19:24:00,
2013-01-16 14:29:00,55.6,54.5,29.95,NW,310,0.0,1.0,96,0.00,,,0.47,meteohub,2013-01-16 19:29:00,
2013-01-16 14:34:00,55.0,54.0,29.95,West,280,2.0,2.0,96,0.00,,,0.47,meteohub,2013-01-16 19:34:00,
2013-01-16 14:39:00,54.7,53.8,29.96,NW,324,2.0,2.0,97,0.00,,,0.47,meteohub,2013-01-16 19:39:00,
2013-01-16 14:44:00,54.5,53.6,29.96,SW,221,0.0,3.0,97,0.00,,,0.47,meteohub,2013-01-16 19:44:00,
2013-01-16 14:49:00,54.3,53.4,29.96,WSW,256,0.0,3.0,97,0.00,,,0.47,meteohub,2013-01-16 19:49:00,
2013-01-16 14:54:00,54.3,53.8,29.96,WSW,256,0.0,3.0,98,0.00,,,0.47,meteohub,2013-01-16 19:54:00,
2013-01-16 14:59:00,54.3,53.8,29.96,West,270,0.0,1.0,98,0.01,,,0.48,meteohub,2013-01-16 19:59:00,
2013-01-16 15:04:00,54.1,53.6,29.96,West,273,0.0,1.0,98,0.02,,,0.49,meteohub,2013-01-16 20:04:00,
2013-01-16 15:09:00,54.1,53.6,29.96,West,273,0.0,1.0,98,0.03,,,0.50,meteohub,2013-01-16 20:09:00,
2013-01-16 15:14:00,54.1,53.6,29.95,West,273,0.0,1.0,98,0.03,,,0.50,meteohub,2013-01-16 20:14:00,
2013-01-16 15:19:00,54.1,53.6,29.95,West,270,0.0,1.0,98,0.04,,,0.51,meteohub,2013-01-16 20:19:00,
2013-01-16 15:24:00,54.1,53.6,29.95,West,270,0.0,1.0,98,0.04,,,0.51,meteohub,2013-01-16 20:24:00,
2013-01-16 15:29:00,54.3,53.8,29.95,West,270,0.0,1.0,98,0.04,,,0.51,meteohub,2013-01-16 20:29:00,
2013-01-16 15:34:00,54.3,54.0,29.96,West,270,0.0,0.0,99,0.04,,,0.51,meteohub,2013-01-16 20:34:00,
2013-01-16 15:39:00,54.5,54.1,29.96,West,270,0.0,1.0,99,0.04,,,0.51,meteohub,2013-01-16 20:39:00,
2013-01-16 15:44:00,54.3,53.8,29.96,West,270,0.0,1.0,98,0.04,,,0.51,meteohub,2013-01-16 20:44:00,
2013-01-16 15:49:00,54.5,54.1,29.95,ESE,102,1.0,1.0,99,0.04,,,0.51,meteohub,2013-01-16 20:49:00,
2013-01-16 15:54:00,54.5,54.1,29.96,North,350,0.0,1.0,99,0.05,,,0.51,meteohub,2013-01-16 20:54:00,
2013-01-16 15:59:00,54.3,54.0,29.96,WNW,290,3.0,3.0,99,0.03,,,0.52,meteohub,2013-01-16 20:59:00,
2013-01-16 16:04:00,54.3,54.0,29.96,East,98,2.0,4.0,99,0.03,,,0.52,meteohub,2013-01-16 21:04:00,
2013-01-16 16:09:00,54.3,54.0,29.95,North,355,0.0,5.0,99,0.02,,,0.52,meteohub,2013-01-16 21:09:00,
2013-01-16 16:14:00,54.5,54.1,29.95,ENE,74,0.0,5.0,99,0.02,,,0.52,meteohub,2013-01-16 21:14:00,
2013-01-16 16:19:00,54.5,54.1,29.96,East,84,0.0,5.0,99,0.01,,,0.52,meteohub,2013-01-16 21:19:00,
2013-01-16 16:24:00,54.7,54.3,29.96,ESE,106,0.0,1.0,99,0.01,,,0.52,meteohub,2013-01-16 21:24:00,
2013-01-16 16:29:00,54.7,54.3,29.96,SE,131,0.0,1.0,99,0.01,,,0.52,meteohub,2013-01-16 21:29:00,
2013-01-16 16:34:00,54.7,54.3,29.96,SSE,165,0.0,1.0,99,0.01,,,0.52,meteohub,2013-01-16 21:34:00,
2013-01-16 16:39:00,54.7,54.3,29.96,SSE,165,0.0,1.0,99,0.01,,,0.52,meteohub,2013-01-16 21:39:00,
2013-01-16 16:44:00,54.7,54.3,29.96,SSE,165,0.0,1.0,99,0.01,,,0.52,meteohub,2013-01-16 21:44:00,
2013-01-16 16:49:00,54.7,54.3,29.96,SSE,165,0.0,1.0,99,0.01,,,0.52,meteohub,2013-01-16 21:49:00,
2013-01-16 16:54:00,54.7,54.3,29.96,South,169,0.0,0.0,99,0.00,,,0.52,meteohub,2013-01-16 21:54:00,
2013-01-16 16:59:00,54.7,54.3,29.96,South,172,0.0,0.0,99,0.00,,,0.52,meteohub,2013-01-16 21:59:00,
2013-01-16 17:04:00,54.7,54.3,29.96,South,172,0.0,0.0,99,0.00,,,0.52,meteohub,2013-01-16 22:04:00,
2013-01-16 17:09:00,54.5,54.1,29.97,South,172,0.0,0.0,99,0.00,,,0.52,meteohub,2013-01-16 22:09:00,
2013-01-16 17:14:00,54.3,54.0,29.98,WSW,243,0.0,0.0,99,0.00,,,0.52,meteohub,2013-01-16 22:14:00,
2013-01-16 17:19:00,54.3,54.0,29.97,WSW,243,0.0,0.0,99,0.00,,,0.52,meteohub,2013-01-16 22:19:00,
2013-01-16 17:25:00,54.1,53.8,29.97,NNE,31,0.0,1.0,99,0.00,,,0.52,meteohub,2013-01-16 22:25:00,
2013-01-16 17:30:00,54.0,53.6,29.97,NNE,31,0.0,1.0,99,0.00,,,0.52,meteohub,2013-01-16 22:30:00,
2013-01-16 17:35:00,54.0,53.6,29.97,NNE,30,0.0,1.0,99,0.00,,,0.52,meteohub,2013-01-16 22:35:00,
2013-01-16 17:40:00,54.0,53.6,29.97,NNE,30,0.0,1.0,99,0.00,,,0.52,meteohub,2013-01-16 22:40:00,
2013-01-16 17:45:00,53.8,53.4,29.97,North,8,2.0,0.0,99,0.00,,,0.52,meteohub,2013-01-16 22:45:00,
2013-01-16 17:50:00,53.8,53.4,29.97,NNW,336,2.0,3.0,99,0.00,,,0.52,meteohub,2013-01-16 22:50:00,
2013-01-16 17:55:00,53.6,53.2,29.97,NE,51,1.0,3.0,99,0.00,,,0.52,meteohub,2013-01-16 22:55:00,
2013-01-16 18:00:00,53.6,53.2,29.98,NE,39,0.0,4.0,99,0.00,,,0.52,meteohub,2013-01-16 23:00:00,
2013-01-16 18:05:00,53.4,53.1,29.97,NNW,330,1.0,4.0,99,0.00,,,0.52,meteohub,2013-01-16 23:05:00,
2013-01-16 18:10:00,53.4,53.1,29.97,North,10,0.0,3.0,99,0.00,,,0.52,meteohub,2013-01-16 23:10:00,
2013-01-16 18:15:00,53.4,53.1,29.97,NNE,22,0.0,3.0,99,0.00,,,0.52,meteohub,2013-01-16 23:15:00,
2013-01-16 18:20:00,53.4,53.4,29.97,ENE,74,0.0,3.0,100,0.00,,,0.52,meteohub,2013-01-16 23:20:00,
2013-01-16 18:25:00,53.4,53.4,29.97,NNE,13,2.0,3.0,100,0.00,,,0.52,meteohub,2013-01-16 23:25:00,
2013-01-16 18:30:00,53.4,53.4,29.97,North,11,3.0,3.0,100,0.00,,,0.52,meteohub,2013-01-16 23:30:00,
2013-01-16 18:35:00,53.4,53.4,29.97,North,1,1.0,4.0,100,0.00,,,0.52,meteohub,2013-01-16 23:35:00,
2013-01-16 18:40:00,53.2,53.2,29.97,ENE,61,0.0,4.0,100,0.00,,,0.52,meteohub,2013-01-16 23:40:00,
2013-01-16 18:45:00,53.2,53.2,29.97,NW,326,1.0,3.0,100,0.00,,,0.52,meteohub,2013-01-16 23:45:00,
2013-01-16 18:50:00,53.2,53.2,29.98,NW,326,1.0,3.0,100,0.00,,,0.52,meteohub,2013-01-16 23:50:00,
2013-01-16 18:55:00,53.2,53.2,29.98,North,6,0.0,4.0,100,0.00,,,0.52,meteohub,2013-01-16 23:55:00,
2013-01-16 19:00:00,53.1,53.1,29.98,NE,56,1.0,4.0,100,0.00,,,0.52,meteohub,2013-01-17 00:00:00,
2013-01-16 19:05:00,53.1,53.1,29.99,NE,34,1.0,4.0,100,0.00,,,0.00,meteohub,2013-01-17 00:05:00,
2013-01-16 19:10:00,53.1,52.7,29.99,North,5,1.0,4.0,99,0.00,,,0.00,meteohub,2013-01-17 00:10:00,
2013-01-16 19:15:00,52.9,52.5,29.99,North,353,1.0,4.0,99,0.00,,,0.00,meteohub,2013-01-17 00:15:00,
2013-01-16 19:20:00,52.9,52.5,29.99,North,356,0.0,4.0,99,0.00,,,0.00,meteohub,2013-01-17 00:20:00,
2013-01-16 19:25:00,52.9,52.5,29.99,East,84,0.0,5.0,99,0.00,,,0.00,meteohub,2013-01-17 00:25:00,
2013-01-16 19:30:00,52.9,52.5,29.99,NNW,335,0.0,6.0,99,0.00,,,0.00,meteohub,2013-01-17 00:30:00,
2013-01-16 19:35:00,52.9,52.5,29.98,NNE,20,0.0,6.0,99,0.00,,,0.00,meteohub,2013-01-17 00:35:00,
2013-01-16 19:40:00,52.9,52.5,29.98,NNW,328,2.0,6.0,99,0.00,,,0.00,meteohub,2013-01-17 00:40:00,
2013-01-16 19:45:00,52.7,52.3,29.98,NW,312,2.0,5.0,99,0.00,,,0.00,meteohub,2013-01-17 00:45:00,
2013-01-16 19:50:00,52.5,52.0,29.98,NNE,23,4.0,6.0,98,0.00,,,0.00,meteohub,2013-01-17 00:50:00,
2013-01-16 19:55:00,52.5,52.0,29.98,North,3,4.0,9.0,98,0.00,,,0.00,meteohub,2013-01-17 00:55:00,
2013-01-16 20:00:00,52.5,52.0,29.98,NW,324,5.0,9.0,98,0.00,,,0.00,meteohub,2013-01-17 01:00:00,
2013-01-16 20:05:00,52.5,52.0,29.99,NNW,335,1.0,9.0,98,0.00,,,0.00,meteohub,2013-01-17 01:05:00,
2013-01-16 20:10:00,52.5,52.0,29.99,NW,308,0.0,7.0,98,0.00,,,0.00,meteohub,2013-01-17 01:10:00,
2013-01-16 20:15:00,52.3,51.8,29.99,NNE,15,0.0,5.0,98,0.00,,,0.00,meteohub,2013-01-17 01:15:00,
2013-01-16 20:20:00,52.3,52.0,29.99,North,1,0.0,3.0,99,0.00,,,0.00,meteohub,2013-01-17 01:20:00,
2013-01-16 20:25:00,52.2,51.6,29.99,NNE,32,0.0,1.0,98,0.00,,,0.00,meteohub,2013-01-17 01:25:00,
2013-01-16 20:30:00,52.2,51.6,29.99,NNE,33,0.0,1.0,98,0.00,,,0.00,meteohub,2013-01-17 01:30:00,
2013-01-16 20:35:00,52.2,51.8,29.99,NNE,32,0.0,1.0,99,0.00,,,0.00,meteohub,2013-01-17 01:35:00,
2013-01-16 20:40:00,52.2,51.8,29.99,NE,34,0.0,1.0,99,0.00,,,0.00,meteohub,2013-01-17 01:40:00,
2013-01-16 20:45:00,52.2,51.8,29.99,NNW,334,0.0,1.0,99,0.00,,,0.00,meteohub,2013-01-17 01:45:00,
2013-01-16 20:50:00,52.2,51.8,30.00,West,281,0.0,2.0,99,0.00,,,0.00,meteohub,2013-01-17 01:50:00,
2013-01-16 20:55:00,52.0,51.6,29.99,East,81,1.0,2.0,99,0.00,,,0.00,meteohub,2013-01-17 01:55:00,
2013-01-16 21:00:00,52.0,51.6,29.99,West,274,0.0,2.0,99,0.00,,,0.00,meteohub,2013-01-17 02:00:00,
2013-01-16 21:05:00,52.0,51.6,29.99,West,276,0.0,1.0,99,0.00,,,0.00,meteohub,2013-01-17 02:05:00,
2013-01-16 21:10:00,52.0,51.6,30.00,West,274,0.0,1.0,99,0.00,,,0.00,meteohub,2013-01-17 02:10:00,
2013-01-16 21:15:00,52.0,51.6,30.00,SW,227,0.0,1.0,99,0.00,,,0.00,meteohub,2013-01-17 02:15:00,
2013-01-16 21:20:00,52.2,51.8,30.00,SW,228,0.0,1.0,99,0.00,,,0.00,meteohub,2013-01-17 02:20:00,
2013-01-16 21:25:00,52.2,51.8,30.00,SW,222,0.0,1.0,99,0.00,,,0.00,meteohub,2013-01-17 02:25:00,
2013-01-16 21:30:00,52.0,51.6,30.00,SW,221,0.0,0.0,99,0.00,,,0.00,meteohub,2013-01-17 02:30:00,
2013-01-16 21:35:00,52.0,51.6,29.99,SW,222,0.0,0.0,99,0.00,,,0.00,meteohub,2013-01-17 02:35:00,
2013-01-16 21:40:00,52.0,51.6,29.99,West,264,0.0,0.0,99,0.01,,,0.01,meteohub,2013-01-17 02:40:00,
2013-01-16 21:45:00,52.0,51.6,29.99,West,277,0.0,1.0,99,0.01,,,0.01,meteohub,2013-01-17 02:45:00,
2013-01-16 21:50:00,52.0,51.6,30.00,North,354,0.0,1.0,99,0.02,,,0.02,meteohub,2013-01-17 02:50:00,
2013-01-16 21:55:00,52.0,51.6,29.99,North,355,0.0,1.0,99,0.02,,,0.02,meteohub,2013-01-17 02:55:00,
2013-01-16 22:00:00,52.0,51.6,29.99,North,354,0.0,0.0,99,0.03,,,0.03,meteohub,2013-01-17 03:00:00,
2013-01-16 22:06:00,52.0,51.6,29.99,North,354,0.0,0.0,99,0.04,,,0.04,meteohub,2013-01-17 03:06:00,
2013-01-16 22:11:00,52.0,51.6,29.99,NNW,343,0.0,1.0,99,0.04,,,0.04,meteohub,2013-01-17 03:11:00,
2013-01-16 22:16:00,52.0,51.6,29.99,NNW,345,0.0,1.0,99,0.04,,,0.04,meteohub,2013-01-17 03:16:00,
2013-01-16 22:21:00,51.8,51.4,29.99,NNW,345,0.0,1.0,99,0.04,,,0.04,meteohub,2013-01-17 03:21:00,
2013-01-16 22:26:00,51.8,51.4,29.98,NNW,345,0.0,0.0,99,0.05,,,0.05,meteohub,2013-01-17 03:26:00,
2013-01-16 22:31:00,51.8,51.4,29.98,NNW,345,0.0,0.0,99,0.05,,,0.05,meteohub,2013-01-17 03:31:00,
2013-01-16 22:36:00,51.8,51.4,29.97,NNW,345,0.0,0.0,99,0.04,,,0.05,meteohub,2013-01-17 03:36:00,
2013-01-16 22:41:00,51.8,51.4,29.98,NNW,338,0.0,0.0,99,0.04,,,0.05,meteohub,2013-01-17 03:41:00,
2013-01-16 22:46:00,51.8,51.4,29.98,NNW,339,0.0,0.0,99,0.03,,,0.05,meteohub,2013-01-17 03:46:00,
2013-01-16 22:51:00,51.6,51.3,29.97,NNW,338,0.0,0.0,99,0.03,,,0.05,meteohub,2013-01-17 03:51:00,
2013-01-16 22:56:00,51.6,51.6,29.96,NNW,340,0.0,0.0,100,0.03,,,0.05,meteohub,2013-01-17 03:56:00,
2013-01-16 23:01:00,51.6,51.3,29.96,NNW,340,0.0,0.0,99,0.01,,,0.05,meteohub,2013-01-17 04:01:00,
2013-01-16 23:06:00,51.6,51.6,29.97,NNW,340,0.0,0.0,100,0.01,,,0.05,meteohub,2013-01-17 04:06:00,
2013-01-16 23:11:00,51.6,51.6,29.97,NNW,340,0.0,0.0,100,0.01,,,0.05,meteohub,2013-01-17 04:11:00,
2013-01-16 23:16:00,51.6,51.6,29.97,NNW,340,0.0,0.0,100,0.01,,,0.05,meteohub,2013-01-17 04:16:00,
2013-01-16 23:21:00,51.6,51.6,29.97,NNW,340,0.0,0.0,100,0.01,,,0.06,meteohub,2013-01-17 04:21:00,
2013-01-16 23:26:00,51.6,51.6,29.97,NNW,340,0.0,1.0,100,0.01,,,0.06,meteohub,2013-01-17 04:26:00,
2013-01-16 23:31:00,51.6,51.6,29.97,NNW,340,0.0,1.0,100,0.01,,,0.06,meteohub,2013-01-17 04:31:00,
2013-01-16 23:36:00,51.6,51.6,29.96,NNW,340,0.0,1.0,100,0.02,,,0.07,meteohub,2013-01-17 04:36:00,
2013-01-16 23:41:00,51.6,51.6,29.96,NNW,340,0.0,0.0,100,0.02,,,0.07,meteohub,2013-01-17 04:41:00,
2013-01-16 23:46:00,51.6,51.6,29.96,North,349,0.0,0.0,100,0.02,,,0.07,meteohub,2013-01-17 04:46:00,
2013-01-16 23:51:00,51.6,51.6,29.96,NNW,348,0.0,0.0,100,0.02,,,0.07,meteohub,2013-01-17 04:51:00,
2013-01-16 23:56:00,51.6,51.6,29.95,NNW,348,0.0,0.0,100,0.02,,,0.07,meteohub,2013-01-17 04:56:00,